Time;durP1;ratioP1;P1;durP2;ratioP2;P2;SDS_P1;SDS_P2;PMS_P1;PMS_P2;Temp;Humidity;BMP_temperature;BMP_pressure;BME280_temperature;BME280_humidity;BME280_pressure;Samples;Min_cycle;Max_cycle;Signal;HPM_P1;HPM_P2
2024/03/15 00:00:32;;;;;;;26.25;12.20;;;;;;;;;;5094051;28;20035;-68
2024/03/15 00:03:18;;;;;;;31.38;12.60;;;;;;;;;;5095191;28;20055;-69
2024/03/15 00:06:03;;;;;;;25.73;11.88;;;;;;;;;;5093958;28;20026;-69
2024/03/15 00:08:51;;;;;;;29.17;13.77;;;;;;;;;;5094388;28;20074;-68
2024/03/15 00:11:37;;;;;;;25.60;12.38;;;;;;;;;;5094111;28;20027;-68
2024/03/15 00:14:23;;;;;;;29.90;11.93;;;;;;;;;;5094372;28;20423;-68
2024/03/15 00:17:09;;;;;;;24.92;12.05;;;;;;;;;;5094747;28;20040;-68
2024/03/15 00:19:55;;;;;;;25.55;12.07;;;;;;;;;;5093895;28;20566;-68
2024/03/15 00:22:41;;;;;;;26.95;12.88;;;;;;;;;;5094578;28;20032;-69
2024/03/15 00:25:26;;;;;;;25.85;11.82;;;;;;;;;;5095596;28;20090;-68
2024/03/15 00:28:12;;;;;;;29.33;12.60;;;;;;;;;;5115054;28;20388;-68
2024/03/15 00:30:59;;;;;;;29.60;13.10;;;;;;;;;;5114865;28;20023;-69
2024/03/15 00:33:45;;;;;;;28.00;12.00;;;;;;;;;;5113176;28;20020;-68
2024/03/15 00:36:32;;;;;;;28.02;12.48;;;;;;;;;;5113553;28;20194;-69
2024/03/15 00:39:20;;;;;;;24.55;10.93;;;;;;;;;;5115162;28;20099;-68
2024/03/15 00:42:06;;;;;;;29.83;13.07;;;;;;;;;;5115287;28;20030;-68
2024/03/15 00:44:51;;;;;;;26.60;12.60;;;;;;;;;;5113895;28;20099;-68
2024/03/15 00:47:37;;;;;;;26.27;12.07;;;;;;;;;;5114509;28;20107;-68
2024/03/15 00:50:23;;;;;;;22.75;11.65;;;;;;;;;;5115086;28;20077;-68
2024/03/15 00:53:08;;;;;;;29.50;11.65;;;;;;;;;;5114020;28;20028;-68
2024/03/15 00:55:55;;;;;;;28.65;11.48;;;;;;;;;;5094231;28;20397;-69
2024/03/15 00:58:40;;;;;;;28.98;12.43;;;;;;;;;;5093849;28;20098;-68
2024/03/15 01:01:26;;;;;;;27.35;11.40;;;;;;;;;;5094284;28;20024;-68
2024/03/15 01:04:13;;;;;;;25.38;11.80;;;;;;;;;;5093576;28;20518;-68
2024/03/15 01:06:58;;;;;;;27.52;11.65;;;;;;;;;;5112056;28;20066;-68
2024/03/15 01:09:44;;;;;;;28.35;11.30;;;;;;;;;;5113184;28;20405;-69
2024/03/15 01:12:34;;;;;;;26.10;11.32;;;;;;;;;;5114376;28;20108;-68
2024/03/15 01:15:19;;;;;;;27.15;11.52;;;;;;;;;;5114414;28;20016;-68
2024/03/15 01:18:06;;;;;;;28.30;12.57;;;;;;;;;;5113940;28;20026;-70
2024/03/15 01:20:52;;;;;;;24.02;11.05;;;;;;;;;;5103762;28;20404;-68
2024/03/15 01:23:37;;;;;;;22.63;10.80;;;;;;;;;;5113862;28;20024;-68
2024/03/15 01:26:23;;;;;;;26.38;11.20;;;;;;;;;;5113673;28;20027;-69
2024/03/15 01:29:09;;;;;;;28.33;11.65;;;;;;;;;;5114795;28;20046;-69
2024/03/15 01:31:56;;;;;;;24.30;10.43;;;;;;;;;;5095715;28;20112;-69
2024/03/15 01:34:42;;;;;;;24.60;9.98;;;;;;;;;;5095046;28;20090;-69
2024/03/15 01:37:27;;;;;;;25.27;11.73;;;;;;;;;;5105240;28;20020;-69
2024/03/15 01:40:15;;;;;;;27.17;10.27;;;;;;;;;;5113534;28;20503;-69
2024/03/15 01:43:01;;;;;;;24.08;11.15;;;;;;;;;;5113402;28;20030;-69
2024/03/15 01:45:48;;;;;;;22.80;10.68;;;;;;;;;;5112680;28;20109;-69
2024/03/15 01:48:34;;;;;;;20.58;10.05;;;;;;;;;;5113821;28;20030;-69
2024/03/15 01:51:19;;;;;;;21.05;10.15;;;;;;;;;;5113452;28;20042;-69
2024/03/15 01:54:05;;;;;;;27.20;10.52;;;;;;;;;;5112930;28;20396;-69
2024/03/15 01:56:50;;;;;;;22.58;9.60;;;;;;;;;;5113393;28;20020;-69
2024/03/15 01:59:36;;;;;;;19.65;9.45;;;;;;;;;;5112292;28;20026;-69
2024/03/15 02:02:22;;;;;;;19.80;9.18;;;;;;;;;;5113159;28;20020;-69
2024/03/15 02:05:08;;;;;;;21.02;10.07;;;;;;;;;;5111800;28;20102;-69
2024/03/15 02:07:54;;;;;;;22.67;10.55;;;;;;;;;;5112595;28;20089;-68
2024/03/15 02:10:40;;;;;;;20.27;10.32;;;;;;;;;;5111972;28;20020;-68
2024/03/15 02:13:25;;;;;;;20.55;9.52;;;;;;;;;;5112467;28;20493;-69
2024/03/15 02:16:11;;;;;;;19.77;9.90;;;;;;;;;;5112803;28;20035;-69
2024/03/15 02:18:57;;;;;;;19.40;9.27;;;;;;;;;;5112375;28;20030;-69
2024/03/15 02:21:45;;;;;;;18.48;9.15;;;;;;;;;;5112272;28;20031;-69
2024/03/15 02:24:30;;;;;;;24.50;10.18;;;;;;;;;;5112654;28;20085;-68
2024/03/15 02:27:17;;;;;;;27.08;10.50;;;;;;;;;;5112224;28;20031;-68
2024/03/15 02:30:03;;;;;;;19.70;9.73;;;;;;;;;;5113040;28;20047;-68
2024/03/15 02:32:48;;;;;;;24.63;9.93;;;;;;;;;;5112959;28;20024;-69
2024/03/15 02:35:34;;;;;;;22.58;10.45;;;;;;;;;;5112854;28;20370;-69
2024/03/15 02:38:19;;;;;;;17.67;8.65;;;;;;;;;;5112636;28;20023;-69
2024/03/15 02:41:09;;;;;;;20.17;9.57;;;;;;;;;;5111833;28;20024;-68
2024/03/15 02:43:55;;;;;;;23.08;9.57;;;;;;;;;;5112488;28;20109;-69
2024/03/15 02:46:40;;;;;;;21.63;9.07;;;;;;;;;;5111590;28;20023;-69
2024/03/15 02:49:26;;;;;;;19.80;8.95;;;;;;;;;;5111991;28;20023;-68
2024/03/15 02:52:12;;;;;;;18.73;9.05;;;;;;;;;;5115770;28;20439;-68
2024/03/15 02:54:58;;;;;;;18.77;9.75;;;;;;;;;;5115980;28;20023;-69
2024/03/15 02:57:43;;;;;;;22.20;9.38;;;;;;;;;;5116165;28;20506;-69
2024/03/15 03:00:32;;;;;;;20.08;9.50;;;;;;;;;;5116285;28;20036;-68
2024/03/15 03:03:17;;;;;;;18.38;9.48;;;;;;;;;;5117115;28;20433;-69
2024/03/15 03:06:06;;;;;;;17.05;9.18;;;;;;;;;;5096442;28;20020;-68
2024/03/15 03:08:52;;;;;;;21.17;9.77;;;;;;;;;;5095619;28;20020;-69
2024/03/15 03:11:37;;;;;;;21.00;10.23;;;;;;;;;;5112424;28;20504;-69
2024/03/15 03:14:23;;;;;;;21.65;9.95;;;;;;;;;;5116135;28;20118;-68
2024/03/15 03:17:10;;;;;;;18.83;9.45;;;;;;;;;;5115574;28;20467;-69
2024/03/15 03:19:56;;;;;;;21.70;9.55;;;;;;;;;;5115683;28;20074;-68
2024/03/15 03:22:43;;;;;;;19.58;10.07;;;;;;;;;;5115506;28;20023;-69
2024/03/15 03:25:31;;;;;;;22.80;9.75;;;;;;;;;;5116505;28;20501;-69
2024/03/15 03:28:16;;;;;;;20.42;10.05;;;;;;;;;;5115776;28;20027;-69
2024/03/15 03:31:02;;;;;;;25.40;10.02;;;;;;;;;;5114894;28;20081;-68
2024/03/15 03:33:48;;;;;;;21.33;9.35;;;;;;;;;;5116718;28;20020;-69
2024/03/15 03:36:36;;;;;;;19.83;9.73;;;;;;;;;;5115154;28;20036;-69
2024/03/15 03:39:22;;;;;;;19.83;9.40;;;;;;;;;;5115524;28;20051;-68
2024/03/15 03:42:07;;;;;;;17.73;9.05;;;;;;;;;;5115051;28;20045;-68
2024/03/15 03:44:53;;;;;;;18.75;9.70;;;;;;;;;;5115825;28;20362;-69
2024/03/15 03:47:39;;;;;;;15.70;8.30;;;;;;;;;;5115654;28;20028;-69
2024/03/15 03:50:25;;;;;;;15.88;8.90;;;;;;;;;;5115100;28;20481;-69
2024/03/15 03:53:10;;;;;;;24.52;10.93;;;;;;;;;;5116344;28;20038;-69
2024/03/15 03:55:56;;;;;;;24.10;10.35;;;;;;;;;;5115289;28;20019;-69
2024/03/15 03:58:44;;;;;;;28.85;9.52;;;;;;;;;;5114414;28;20058;-68
2024/03/15 04:01:33;;;;;;;20.67;8.70;;;;;;;;;;5114169;28;20066;-69
2024/03/15 04:04:21;;;;;;;18.92;9.43;;;;;;;;;;5114662;28;20512;-69
2024/03/15 04:07:07;;;;;;;25.80;9.52;;;;;;;;;;5114724;28;20030;-69
2024/03/15 04:09:52;;;;;;;20.33;10.10;;;;;;;;;;5114783;28;20027;-69
2024/03/15 04:12:38;;;;;;;19.60;9.18;;;;;;;;;;5115261;28;20508;-69
2024/03/15 04:15:24;;;;;;;24.60;10.02;;;;;;;;;;5114216;28;20015;-69
2024/03/15 04:18:11;;;;;;;17.90;9.43;;;;;;;;;;5115724;28;20016;-69
2024/03/15 04:20:57;;;;;;;18.55;9.80;;;;;;;;;;5115603;28;20022;-68
2024/03/15 04:23:42;;;;;;;26.83;10.57;;;;;;;;;;5115080;28;20027;-69
2024/03/15 04:26:31;;;;;;;16.65;9.82;;;;;;;;;;5113996;28;20057;-68
2024/03/15 04:29:19;;;;;;;16.95;9.43;;;;;;;;;;5114142;28;20046;-69
2024/03/15 04:32:08;;;;;;;20.38;10.55;;;;;;;;;;5114834;28;20024;-68
2024/03/15 04:34:55;;;;;;;18.92;9.23;;;;;;;;;;5115144;28;20404;-69
2024/03/15 04:37:42;;;;;;;18.17;9.48;;;;;;;;;;5113926;28;20085;-69
2024/03/15 04:40:28;;;;;;;19.08;10.30;;;;;;;;;;5114048;28;20023;-69
2024/03/15 04:43:14;;;;;;;19.63;9.88;;;;;;;;;;5114934;28;20085;-69
2024/03/15 04:46:00;;;;;;;21.50;9.35;;;;;;;;;;5114238;28;20035;-69
2024/03/15 04:48:46;;;;;;;21.10;9.98;;;;;;;;;;5113874;28;20138;-68
2024/03/15 04:51:33;;;;;;;19.08;9.82;;;;;;;;;;5113494;28;20063;-68
2024/03/15 04:54:21;;;;;;;20.90;10.25;;;;;;;;;;5114799;27;20405;-69
2024/03/15 04:57:06;;;;;;;20.02;10.63;;;;;;;;;;5114751;28;20438;-68
2024/03/15 04:59:52;;;;;;;18.30;9.23;;;;;;;;;;5113748;28;20023;-70
2024/03/15 05:02:38;;;;;;;17.73;9.02;;;;;;;;;;5113173;28;20054;-69
2024/03/15 05:05:25;;;;;;;17.90;9.75;;;;;;;;;;5113923;28;20114;-69
2024/03/15 05:08:10;;;;;;;19.13;9.32;;;;;;;;;;5113013;28;20078;-69
2024/03/15 05:10:56;;;;;;;15.27;9.35;;;;;;;;;;5093677;28;20446;-68
2024/03/15 05:13:42;;;;;;;19.52;10.05;;;;;;;;;;5091808;28;20074;-69
2024/03/15 05:16:27;;;;;;;19.40;9.43;;;;;;;;;;5105144;28;20028;-69
2024/03/15 05:19:13;;;;;;;16.85;9.10;;;;;;;;;;5113166;28;20031;-69
2024/03/15 05:21:59;;;;;;;17.77;8.82;;;;;;;;;;5113376;28;20035;-68
2024/03/15 05:24:45;;;;;;;19.58;9.27;;;;;;;;;;5113281;28;20032;-68
2024/03/15 05:27:32;;;;;;;19.50;8.98;;;;;;;;;;5114292;28;20484;-69
2024/03/15 05:30:18;;;;;;;15.05;8.98;;;;;;;;;;5113055;28;20026;-68
2024/03/15 05:33:04;;;;;;;21.63;9.20;;;;;;;;;;5113333;28;20050;-69
2024/03/15 05:35:51;;;;;;;21.67;10.00;;;;;;;;;;5113556;28;20459;-69
2024/03/15 05:38:37;;;;;;;20.92;9.35;;;;;;;;;;5114165;28;20019;-69
2024/03/15 05:41:22;;;;;;;21.30;9.00;;;;;;;;;;5113345;28;20031;-69
2024/03/15 05:44:09;;;;;;;16.15;8.18;;;;;;;;;;5113667;28;20051;-68
2024/03/15 05:46:58;;;;;;;18.30;9.73;;;;;;;;;;5112000;28;20034;-69
2024/03/15 05:49:45;;;;;;;19.77;9.60;;;;;;;;;;5112403;28;20020;-68
2024/03/15 05:52:34;;;;;;;20.02;9.32;;;;;;;;;;5111910;28;20019;-69
2024/03/15 05:55:19;;;;;;;17.75;9.40;;;;;;;;;;5112347;28;20020;-69
2024/03/15 05:58:05;;;;;;;20.15;10.57;;;;;;;;;;5112190;28;20027;-69
2024/03/15 06:00:51;;;;;;;19.25;9.65;;;;;;;;;;5112576;28;20076;-69
2024/03/15 06:03:36;;;;;;;23.05;9.80;;;;;;;;;;5111922;28;20024;-69
2024/03/15 06:06:23;;;;;;;17.33;9.05;;;;;;;;;;5112155;28;20365;-69
2024/03/15 06:09:09;;;;;;;17.20;9.10;;;;;;;;;;5112192;28;20408;-69
2024/03/15 06:11:55;;;;;;;18.58;8.45;;;;;;;;;;5112033;28;20076;-69
2024/03/15 06:14:40;;;;;;;16.67;8.50;;;;;;;;;;5112560;28;20042;-69
2024/03/15 06:17:26;;;;;;;17.73;9.18;;;;;;;;;;5111683;28;20115;-69
2024/03/15 06:20:12;;;;;;;19.92;10.18;;;;;;;;;;5092521;28;20027;-69
2024/03/15 06:22:58;;;;;;;20.60;9.93;;;;;;;;;;5091133;28;20054;-69
2024/03/15 06:25:44;;;;;;;21.63;9.00;;;;;;;;;;5110000;28;20115;-68
2024/03/15 06:28:29;;;;;;;19.20;9.23;;;;;;;;;;5111096;28;20043;-69
2024/03/15 06:31:15;;;;;;;18.85;9.35;;;;;;;;;;5112368;28;20457;-69
2024/03/15 06:34:07;;;;;;;20.05;9.23;;;;;;;;;;5112115;28;20485;-69
2024/03/15 06:36:54;;;;;;;21.08;9.65;;;;;;;;;;5112750;28;20440;-68
2024/03/15 06:42:35;;;;;;;21.52;9.98;;;;;;;;;;5112858;28;20023;-68
2024/03/15 06:45:24;;;;;;;21.38;9.20;;;;;;;;;;5111329;28;20026;-69
2024/03/15 06:48:17;;;;;;;14.55;8.38;;;;;;;;;;5111370;28;20107;-69
2024/03/15 06:54:08;;;;;;;23.50;9.68;;;;;;;;;;5111104;28;20027;-68
2024/03/15 06:56:55;;;;;;;19.48;10.48;;;;;;;;;;5111003;28;20027;-68
2024/03/15 06:59:42;;;;;;;19.42;10.00;;;;;;;;;;5112375;28;20051;-68
2024/03/15 07:02:30;;;;;;;20.92;9.38;;;;;;;;;;5112881;28;20485;-68
2024/03/15 07:05:16;;;;;;;18.30;9.90;;;;;;;;;;5111164;28;20399;-69
2024/03/15 07:08:05;;;;;;;19.52;9.65;;;;;;;;;;5091962;28;20024;-68
2024/03/15 07:10:51;;;;;;;22.38;9.70;;;;;;;;;;5091525;28;20495;-68
2024/03/15 07:13:37;;;;;;;19.45;10.23;;;;;;;;;;5108574;28;20484;-68
2024/03/15 07:16:24;;;;;;;20.77;9.57;;;;;;;;;;5111847;28;20019;-68
2024/03/15 07:19:13;;;;;;;20.20;9.88;;;;;;;;;;5111090;28;20062;-68
2024/03/15 07:21:59;;;;;;;19.70;9.75;;;;;;;;;;5111231;28;20448;-69
2024/03/15 07:24:48;;;;;;;22.23;10.40;;;;;;;;;;5111138;28;20111;-69
2024/03/15 07:27:34;;;;;;;20.63;10.75;;;;;;;;;;5112011;28;20024;-69
2024/03/15 07:30:19;;;;;;;22.67;10.07;;;;;;;;;;5111504;28;20020;-69
2024/03/15 07:33:05;;;;;;;18.85;9.27;;;;;;;;;;5112128;28;20028;-69
2024/03/15 07:36:01;;;;;;;18.17;9.65;;;;;;;;;;5111555;28;20099;-69
2024/03/15 07:38:47;;;;;;;20.58;9.55;;;;;;;;;;5114714;28;20015;-68
2024/03/15 07:41:34;;;;;;;22.75;10.63;;;;;;;;;;5114850;28;20115;-70
2024/03/15 07:44:19;;;;;;;16.75;8.70;;;;;;;;;;5114380;28;20435;-68
2024/03/15 07:47:06;;;;;;;21.25;8.75;;;;;;;;;;5114777;28;20094;-69
2024/03/15 07:49:53;;;;;;;21.02;9.15;;;;;;;;;;5114735;28;20023;-69
2024/03/15 07:52:38;;;;;;;23.73;11.00;;;;;;;;;;5114728;28;20106;-69
2024/03/15 07:55:24;;;;;;;17.65;9.90;;;;;;;;;;5114619;28;20012;-69
2024/03/15 07:58:10;;;;;;;20.38;9.80;;;;;;;;;;5114839;28;20134;-70
2024/03/15 08:00:56;;;;;;;19.30;10.05;;;;;;;;;;5114465;28;20510;-69
2024/03/15 08:03:43;;;;;;;22.00;9.73;;;;;;;;;;5113538;28;20058;-70
2024/03/15 08:06:29;;;;;;;21.30;10.63;;;;;;;;;;5115197;28;20023;-69
2024/03/15 08:09:15;;;;;;;18.45;10.07;;;;;;;;;;5114145;28;20399;-70
2024/03/15 08:12:03;;;;;;;22.05;9.35;;;;;;;;;;5115537;28;20063;-69
2024/03/15 08:14:49;;;;;;;23.27;9.35;;;;;;;;;;5114522;28;20103;-69
2024/03/15 08:17:37;;;;;;;17.65;8.90;;;;;;;;;;5115013;28;20024;-70
2024/03/15 08:20:23;;;;;;;23.58;10.88;;;;;;;;;;5115397;28;20031;-69
2024/03/15 08:23:08;;;;;;;21.70;10.52;;;;;;;;;;5115046;28;20092;-69
2024/03/15 08:25:54;;;;;;;20.52;8.63;;;;;;;;;;5114213;28;20459;-68
2024/03/15 08:28:40;;;;;;;21.20;9.60;;;;;;;;;;5114057;28;20028;-70
2024/03/15 08:31:29;;;;;;;21.02;9.68;;;;;;;;;;5113899;28;20069;-70
2024/03/15 08:34:15;;;;;;;18.35;9.57;;;;;;;;;;5113524;28;20015;-70
2024/03/15 08:37:01;;;;;;;21.10;10.18;;;;;;;;;;5113628;28;20051;-69
2024/03/15 08:39:48;;;;;;;19.10;10.45;;;;;;;;;;5114621;28;20028;-70
2024/03/15 08:42:34;;;;;;;19.60;10.40;;;;;;;;;;5113196;28;20499;-70
2024/03/15 08:45:21;;;;;;;20.38;9.73;;;;;;;;;;5114523;28;20062;-70
2024/03/15 08:48:07;;;;;;;18.95;9.27;;;;;;;;;;5113065;28;20073;-69
2024/03/15 08:50:53;;;;;;;20.50;10.38;;;;;;;;;;5113814;28;20046;-69
2024/03/15 08:53:38;;;;;;;17.60;9.80;;;;;;;;;;5113340;28;20107;-69
2024/03/15 08:56:26;;;;;;;22.67;10.07;;;;;;;;;;5114117;28;20514;-70
2024/03/15 08:59:11;;;;;;;18.52;9.77;;;;;;;;;;5112887;28;20020;-70
2024/03/15 09:01:57;;;;;;;24.33;10.63;;;;;;;;;;5113918;28;20027;-69
2024/03/15 09:04:45;;;;;;;17.30;8.15;;;;;;;;;;5114925;27;20416;-70
2024/03/15 09:07:31;;;;;;;23.25;9.82;;;;;;;;;;5113130;28;20016;-69
2024/03/15 09:10:17;;;;;;;19.48;10.38;;;;;;;;;;5093800;28;20031;-69
2024/03/15 09:13:04;;;;;;;28.05;11.73;;;;;;;;;;5093126;28;20020;-70
2024/03/15 09:15:49;;;;;;;19.80;8.93;;;;;;;;;;5094880;28;20058;-69
2024/03/15 09:18:35;;;;;;;20.63;10.55;;;;;;;;;;5099201;28;20484;-69
2024/03/15 09:21:21;;;;;;;17.80;9.50;;;;;;;;;;5113721;28;20488;-69
2024/03/15 09:24:07;;;;;;;23.27;11.05;;;;;;;;;;5112950;28;20098;-70
2024/03/15 09:26:53;;;;;;;20.70;10.30;;;;;;;;;;5114025;28;20051;-69
2024/03/15 09:29:43;;;;;;;21.90;10.50;;;;;;;;;;5114102;28;20024;-69
2024/03/15 09:32:31;;;;;;;26.35;10.95;;;;;;;;;;5112860;28;20049;-69
2024/03/15 09:35:17;;;;;;;24.98;12.00;;;;;;;;;;5114006;28;20016;-69
2024/03/15 09:38:02;;;;;;;17.38;9.68;;;;;;;;;;5113958;28;20015;-69
2024/03/15 09:40:55;;;;;;;18.02;9.82;;;;;;;;;;5112465;28;20484;-69
2024/03/15 09:43:41;;;;;;;18.98;9.27;;;;;;;;;;5112290;28;20446;-70
2024/03/15 09:46:28;;;;;;;20.40;9.57;;;;;;;;;;5113005;28;20027;-69
2024/03/15 09:49:20;;;;;;;24.75;10.48;;;;;;;;;;5111737;28;20048;-68
2024/03/15 09:52:08;;;;;;;23.80;10.32;;;;;;;;;;5111854;28;20019;-68
2024/03/15 09:54:53;;;;;;;19.23;10.43;;;;;;;;;;5113516;28;20018;-68
2024/03/15 09:57:42;;;;;;;21.52;11.23;;;;;;;;;;5112416;28;20459;-68
2024/03/15 10:00:30;;;;;;;22.70;9.93;;;;;;;;;;5108686;27;20052;-68
2024/03/15 10:03:15;;;;;;;21.63;11.43;;;;;;;;;;5092301;28;20059;-68
2024/03/15 10:06:01;;;;;;;19.70;10.68;;;;;;;;;;5092399;28;20123;-68
2024/03/15 10:08:48;;;;;;;22.63;11.02;;;;;;;;;;5102686;28;20058;-67
2024/03/15 10:11:34;;;;;;;21.95;11.70;;;;;;;;;;5112338;28;20052;-68
2024/03/15 10:14:19;;;;;;;20.70;10.88;;;;;;;;;;5112397;28;20566;-68
2024/03/15 10:17:06;;;;;;;24.02;12.68;;;;;;;;;;5108550;28;20509;-69
2024/03/15 10:19:52;;;;;;;25.77;11.35;;;;;;;;;;5109227;27;20031;-68
2024/03/15 10:22:40;;;;;;;20.88;12.30;;;;;;;;;;5101714;28;20016;-68
2024/03/15 10:25:28;;;;;;;21.17;12.18;;;;;;;;;;5092768;28;20016;-67
2024/03/15 10:28:19;;;;;;;24.75;11.40;;;;;;;;;;5098737;28;20078;-68
2024/03/15 10:31:05;;;;;;;26.95;13.68;;;;;;;;;;5104208;28;20378;-69
2024/03/15 10:33:51;;;;;;;31.63;13.23;;;;;;;;;;5103225;28;20400;-68
2024/03/15 10:36:36;;;;;;;29.23;12.93;;;;;;;;;;5110761;28;20031;-68
2024/03/15 10:39:23;;;;;;;27.40;13.82;;;;;;;;;;5112834;28;20097;-69
2024/03/15 10:42:12;;;;;;;27.17;13.07;;;;;;;;;;5110757;28;20106;-68
2024/03/15 10:44:58;;;;;;;25.55;13.20;;;;;;;;;;5112087;28;20024;-68
2024/03/15 10:47:43;;;;;;;22.48;12.35;;;;;;;;;;5112178;28;20501;-68
2024/03/15 10:50:29;;;;;;;27.98;12.52;;;;;;;;;;5112355;28;20123;-67
2024/03/15 10:53:16;;;;;;;19.30;10.38;;;;;;;;;;5100540;28;20023;-68
2024/03/15 10:56:04;;;;;;;20.52;10.35;;;;;;;;;;5111952;28;20480;-69
2024/03/15 10:58:49;;;;;;;19.73;10.80;;;;;;;;;;5113005;28;20450;-67
2024/03/15 11:01:35;;;;;;;22.42;11.27;;;;;;;;;;5093886;28;20098;-68
2024/03/15 11:04:21;;;;;;;24.30;11.52;;;;;;;;;;5099661;28;20023;-68
2024/03/15 11:07:07;;;;;;;23.60;11.82;;;;;;;;;;5111025;28;20045;-67
2024/03/15 11:09:55;;;;;;;22.88;11.55;;;;;;;;;;5093238;28;20051;-68
2024/03/15 11:12:41;;;;;;;24.35;10.60;;;;;;;;;;5094630;28;20110;-68
2024/03/15 11:15:33;;;;;;;19.80;11.10;;;;;;;;;;5099241;28;20024;-68
2024/03/15 11:18:18;;;;;;;22.65;10.68;;;;;;;;;;5094191;28;20027;-68
2024/03/15 11:21:04;;;;;;;23.52;10.82;;;;;;;;;;5103058;28;20537;-68
2024/03/15 11:23:51;;;;;;;19.02;9.70;;;;;;;;;;5097469;28;20039;-67
2024/03/15 11:26:36;;;;;;;16.70;9.90;;;;;;;;;;5102953;28;20031;-68
2024/03/15 11:29:22;;;;;;;21.35;11.20;;;;;;;;;;5096005;28;20461;-68
2024/03/15 11:32:10;;;;;;;18.63;9.75;;;;;;;;;;5098884;28;20058;-68
2024/03/15 11:34:56;;;;;;;24.08;10.32;;;;;;;;;;5094349;28;20451;-68
2024/03/15 11:37:41;;;;;;;21.70;10.38;;;;;;;;;;5106338;28;20028;-68
2024/03/15 11:40:27;;;;;;;22.45;10.55;;;;;;;;;;5115349;28;20023;-68
2024/03/15 11:43:14;;;;;;;23.83;10.52;;;;;;;;;;5115276;28;20492;-68
2024/03/15 11:45:59;;;;;;;25.98;11.25;;;;;;;;;;5113835;28;20115;-68
2024/03/15 11:48:46;;;;;;;24.35;10.65;;;;;;;;;;5114302;28;20023;-69
2024/03/15 11:51:31;;;;;;;20.88;8.98;;;;;;;;;;5104046;28;20113;-68
2024/03/15 11:54:17;;;;;;;26.67;11.20;;;;;;;;;;5094736;28;20378;-69
2024/03/15 11:57:02;;;;;;;24.45;11.48;;;;;;;;;;5100230;28;20117;-68
2024/03/15 11:59:48;;;;;;;20.48;10.63;;;;;;;;;;5095959;28;20024;-68
2024/03/15 12:02:36;;;;;;;23.60;11.77;;;;;;;;;;5095145;28;20103;-68
2024/03/15 12:05:22;;;;;;;24.38;10.88;;;;;;;;;;5113797;28;20055;-68
2024/03/15 12:08:12;;;;;;;22.05;11.02;;;;;;;;;;5114153;28;20027;-69
2024/03/15 12:10:58;;;;;;;23.27;11.48;;;;;;;;;;5112754;28;20047;-69
2024/03/15 12:13:46;;;;;;;24.38;10.88;;;;;;;;;;5094664;28;20027;-69
2024/03/15 12:16:32;;;;;;;21.85;10.15;;;;;;;;;;5092480;28;20107;-68
2024/03/15 12:19:18;;;;;;;18.38;10.15;;;;;;;;;;5109635;28;20055;-67
2024/03/15 12:22:07;;;;;;;23.60;11.82;;;;;;;;;;5114741;28;20535;-68
2024/03/15 12:24:53;;;;;;;21.67;10.95;;;;;;;;;;5106484;28;20400;-68
2024/03/15 12:27:39;;;;;;;24.42;11.10;;;;;;;;;;5114069;28;20027;-69
2024/03/15 12:30:24;;;;;;;21.65;10.73;;;;;;;;;;5105770;28;20081;-68
2024/03/15 12:33:10;;;;;;;19.55;10.85;;;;;;;;;;5113583;28;20027;-68
2024/03/15 12:35:59;;;;;;;19.52;10.20;;;;;;;;;;5109818;28;20023;-68
2024/03/15 12:38:44;;;;;;;20.73;9.48;;;;;;;;;;5094485;28;20020;-68
2024/03/15 12:41:30;;;;;;;21.77;10.95;;;;;;;;;;5100081;28;20078;-68
2024/03/15 12:44:16;;;;;;;19.33;10.23;;;;;;;;;;5093961;28;20016;-68
2024/03/15 12:47:01;;;;;;;25.30;10.13;;;;;;;;;;5092187;28;20020;-68
2024/03/15 12:49:47;;;;;;;18.50;9.80;;;;;;;;;;5094373;28;20032;-68
2024/03/15 12:52:33;;;;;;;24.10;10.25;;;;;;;;;;5112150;28;20110;-68
2024/03/15 12:55:19;;;;;;;24.58;11.75;;;;;;;;;;5112865;28;20018;-69
2024/03/15 12:58:05;;;;;;;24.27;10.48;;;;;;;;;;5104479;28;20032;-68
2024/03/15 13:00:50;;;;;;;25.75;10.45;;;;;;;;;;5113355;28;20201;-68
2024/03/15 13:03:36;;;;;;;22.17;10.65;;;;;;;;;;5103529;28;20035;-68
2024/03/15 13:06:22;;;;;;;18.85;10.10;;;;;;;;;;5094226;28;20016;-69
2024/03/15 13:09:07;;;;;;;20.50;10.65;;;;;;;;;;5099413;28;20072;-68
2024/03/15 13:11:54;;;;;;;22.08;11.20;;;;;;;;;;5113071;28;20020;-69
2024/03/15 13:14:39;;;;;;;28.42;11.68;;;;;;;;;;5113074;28;20019;-68
2024/03/15 13:17:28;;;;;;;24.20;10.40;;;;;;;;;;5095982;28;20031;-69
2024/03/15 13:20:15;;;;;;;27.23;10.23;;;;;;;;;;5092274;28;20024;-68
2024/03/15 13:23:04;;;;;;;24.55;10.77;;;;;;;;;;5100054;28;20024;-68
2024/03/15 13:25:52;;;;;;;22.15;10.00;;;;;;;;;;5090821;28;20439;-68
2024/03/15 13:28:38;;;;;;;16.13;9.82;;;;;;;;;;5094703;28;20055;-68
2024/03/15 13:31:23;;;;;;;20.70;9.52;;;;;;;;;;5091541;28;20108;-69
2024/03/15 13:34:09;;;;;;;23.55;9.60;;;;;;;;;;5103089;28;20035;-68
2024/03/15 13:36:55;;;;;;;21.33;10.25;;;;;;;;;;5109659;28;20019;-68
2024/03/15 13:39:40;;;;;;;23.60;10.30;;;;;;;;;;5112444;28;20246;-68
2024/03/15 13:42:33;;;;;;;29.63;10.68;;;;;;;;;;5099423;28;20453;-68
2024/03/15 13:45:19;;;;;;;22.55;10.18;;;;;;;;;;5105584;28;20107;-69
2024/03/15 13:48:27;;;;;;;23.23;9.65;;;;;;;;;;5097907;28;20450;-68
2024/03/15 13:51:13;;;;;;;26.25;9.80;;;;;;;;;;5099294;28;20484;-68
2024/03/15 13:53:59;;;;;;;22.70;11.02;;;;;;;;;;5104753;28;20024;-68
2024/03/15 13:56:45;;;;;;;23.30;10.45;;;;;;;;;;5101913;28;20035;-68
2024/03/15 13:59:31;;;;;;;28.58;11.48;;;;;;;;;;5112300;28;20500;-67
2024/03/15 14:02:17;;;;;;;28.15;11.02;;;;;;;;;;5113379;28;20027;-68
2024/03/15 14:05:03;;;;;;;19.30;9.10;;;;;;;;;;5112765;28;20400;-69
2024/03/15 14:07:49;;;;;;;22.75;9.57;;;;;;;;;;5111596;28;20077;-69
2024/03/15 14:10:36;;;;;;;21.27;9.18;;;;;;;;;;5094550;28;20089;-68
2024/03/15 14:13:22;;;;;;;25.08;9.52;;;;;;;;;;5091375;28;20020;-68
2024/03/15 14:16:07;;;;;;;22.30;9.60;;;;;;;;;;5097799;28;20024;-68
2024/03/15 14:18:53;;;;;;;23.63;9.25;;;;;;;;;;5096874;28;20548;-69
2024/03/15 14:21:40;;;;;;;20.90;8.48;;;;;;;;;;5091375;28;20032;-69
2024/03/15 14:24:26;;;;;;;21.73;8.30;;;;;;;;;;5099491;28;20015;-68
2024/03/15 14:27:12;;;;;;;22.73;8.82;;;;;;;;;;5091710;28;20027;-68
2024/03/15 14:29:57;;;;;;;23.25;8.73;;;;;;;;;;5097525;28;20105;-68
2024/03/15 14:32:43;;;;;;;22.20;9.52;;;;;;;;;;5105288;28;20020;-68
2024/03/15 14:35:30;;;;;;;22.50;7.93;;;;;;;;;;5111991;28;20096;-69
2024/03/15 14:38:15;;;;;;;17.00;8.35;;;;;;;;;;5111418;28;20020;-69
2024/03/15 14:41:02;;;;;;;26.45;7.50;;;;;;;;;;5109652;28;20070;-68
2024/03/15 14:43:48;;;;;;;16.20;7.22;;;;;;;;;;5108400;28;20024;-68
2024/03/15 14:46:35;;;;;;;18.98;7.80;;;;;;;;;;5114377;28;20118;-69
2024/03/15 14:49:21;;;;;;;14.68;6.97;;;;;;;;;;5115854;28;20050;-69
2024/03/15 14:52:11;;;;;;;19.77;6.15;;;;;;;;;;5115900;28;20097;-69
2024/03/15 14:54:58;;;;;;;22.75;7.38;;;;;;;;;;5113856;28;20027;-68
2024/03/15 14:57:44;;;;;;;12.88;6.38;;;;;;;;;;5105367;28;20019;-68
2024/03/15 15:00:30;;;;;;;20.27;5.93;;;;;;;;;;5117727;28;20028;-68
2024/03/15 15:03:16;;;;;;;14.20;6.75;;;;;;;;;;5100522;28;20051;-68
2024/03/15 15:06:02;;;;;;;22.70;7.32;;;;;;;;;;5117838;28;20092;-68
2024/03/15 15:08:48;;;;;;;19.40;7.40;;;;;;;;;;5115838;28;20024;-68
2024/03/15 15:11:34;;;;;;;14.52;6.68;;;;;;;;;;5102308;28;20085;-69
2024/03/15 15:14:19;;;;;;;17.35;6.38;;;;;;;;;;5101358;28;20374;-69
2024/03/15 15:17:06;;;;;;;12.23;5.28;;;;;;;;;;5097462;28;20028;-68
2024/03/15 15:19:52;;;;;;;13.70;5.05;;;;;;;;;;5102240;28;20034;-68
2024/03/15 15:22:40;;;;;;;18.33;6.47;;;;;;;;;;5101114;28;20028;-68
2024/03/15 15:25:27;;;;;;;18.13;6.03;;;;;;;;;;5106865;28;20066;-69
2024/03/15 15:28:14;;;;;;;19.77;6.63;;;;;;;;;;5117858;28;20073;-69
2024/03/15 15:31:00;;;;;;;13.18;6.20;;;;;;;;;;5113667;28;20046;-68
2024/03/15 15:33:46;;;;;;;14.23;7.15;;;;;;;;;;5097585;28;20102;-68
2024/03/15 15:36:31;;;;;;;25.27;7.25;;;;;;;;;;5097277;28;20024;-68
2024/03/15 15:39:17;;;;;;;11.38;5.38;;;;;;;;;;5098150;28;20043;-69
2024/03/15 15:42:03;;;;;;;16.50;6.72;;;;;;;;;;5097555;28;20435;-68
2024/03/15 15:44:49;;;;;;;15.80;6.80;;;;;;;;;;5118073;28;20488;-68
2024/03/15 15:47:34;;;;;;;16.67;6.65;;;;;;;;;;5117552;28;20050;-68
2024/03/15 15:50:22;;;;;;;18.77;7.18;;;;;;;;;;5112193;28;20130;-69
2024/03/15 15:53:08;;;;;;;19.50;6.93;;;;;;;;;;5117365;28;20073;-69
2024/03/15 15:55:54;;;;;;;18.98;6.57;;;;;;;;;;5098469;28;20378;-68
2024/03/15 15:58:42;;;;;;;19.98;5.35;;;;;;;;;;5095507;28;20036;-68
2024/03/15 16:01:28;;;;;;;20.65;6.50;;;;;;;;;;5097458;28;20114;-68
2024/03/15 16:04:13;;;;;;;17.02;6.43;;;;;;;;;;5106724;28;20107;-68
2024/03/15 16:06:59;;;;;;;19.65;6.53;;;;;;;;;;5111786;28;20026;-68
2024/03/15 16:09:44;;;;;;;21.27;6.43;;;;;;;;;;5113228;28;20404;-69
2024/03/15 16:12:30;;;;;;;18.02;5.95;;;;;;;;;;5114469;28;20060;-69
2024/03/15 16:15:16;;;;;;;14.85;6.88;;;;;;;;;;5114543;28;20027;-68
2024/03/15 16:18:03;;;;;;;18.02;6.68;;;;;;;;;;5114042;28;20035;-68
2024/03/15 16:20:48;;;;;;;16.63;6.25;;;;;;;;;;5114168;28;20051;-68